Time;durP1;ratioP1;P1;durP2;ratioP2;P2;SDS_P1;SDS_P2;PMS_P1;PMS_P2;Temp;Humidity;BMP_temperature;BMP_pressure;BME280_temperature;BME280_humidity;BME280_pressure;Samples;Min_cycle;Max_cycle;Signal;HPM_P1;HPM_P2
2022/06/04 00:00:52;;;;;;;14.55;7.47;;;12.00;99.90;;;;;;4930976;29;20043;-59
2022/06/04 00:03:19;;;;;;;9.25;6.97;;;12.00;99.90;;;;;;4946716;28;20047;-59
2022/06/04 00:05:53;;;;;;;12.32;7.28;;;12.00;99.90;;;;;;4943510;29;20039;-58
2022/06/04 00:08:19;;;;;;;15.27;8.13;;;12.00;99.90;;;;;;4944533;28;20368;-53
2022/06/04 00:16:20;;;;;;;15.05;7.70;;;11.90;99.90;;;;;;4948535;29;20083;-53
2022/06/04 00:18:46;;;;;;;15.75;6.93;;;11.90;99.90;;;;;;4946907;28;20039;-54
2022/06/04 00:21:13;;;;;;;13.48;7.20;;;11.90;99.90;;;;;;4948538;28;20043;-54
2022/06/04 00:23:39;;;;;;;20.85;8.65;;;11.90;99.90;;;;;;4932330;28;20039;-56
2022/06/04 00:26:08;;;;;;;15.15;7.78;;;11.90;99.90;;;;;;4945368;29;20160;-58
2022/06/04 00:28:35;;;;;;;13.57;6.90;;;11.90;99.90;;;;;;4930312;29;20347;-59
2022/06/04 00:31:01;;;;;;;12.63;8.10;;;11.90;99.90;;;;;;4950282;28;20178;-56
2022/06/04 00:33:27;;;;;;;15.98;6.88;;;11.90;99.90;;;;;;4951447;28;20490;-54
2022/06/04 00:35:55;;;;;;;16.33;6.82;;;11.90;99.90;;;;;;4950189;28;21006;-58
2022/06/04 00:38:23;;;;;;;14.85;7.68;;;11.90;99.90;;;;;;4943914;28;20039;-56
2022/06/04 00:41:20;;;;;;;14.30;7.32;;;11.90;99.90;;;;;;4930438;29;20058;-56
2022/06/04 00:44:04;;;;;;;13.10;6.82;;;11.90;99.90;;;;;;4946772;28;20447;-58
2022/06/04 00:46:42;;;;;;;;;;;11.90;99.90;;;;;;4949182;28;20058;-56
2022/06/04 00:49:16;;;;;;;13.98;7.47;;;11.90;99.90;;;;;;4945690;29;19918;-56
2022/06/04 00:51:45;;;;;;;16.27;8.65;;;11.80;99.90;;;;;;4930928;29;20049;-54
2022/06/04 00:54:11;;;;;;;14.43;7.63;;;11.80;99.90;;;;;;4930694;29;20562;-54
2022/06/04 00:56:43;;;;;;;17.20;7.82;;;11.80;99.90;;;;;;4927596;29;20450;-54
2022/06/04 00:59:24;;;;;;;17.40;7.97;;;11.80;99.90;;;;;;4943082;28;20054;-57
2022/06/04 01:02:12;;;;;;;14.77;7.82;;;11.80;99.90;;;;;;4944657;28;20514;-57
2022/06/04 01:04:56;;;;;;;12.18;7.65;;;11.80;99.90;;;;;;4943061;28;20375;-58
2022/06/04 01:07:24;;;;;;;14.27;7.43;;;11.80;99.90;;;;;;4940042;28;20070;-60
2022/06/04 01:10:06;;;;;;;10.48;6.68;;;11.80;99.90;;;;;;4947542;28;20134;-57
2022/06/04 01:12:44;;;;;;;14.40;7.22;;;11.80;99.90;;;;;;4944948;28;20317;-57
2022/06/04 01:15:43;;;;;;;13.45;7.13;;;11.80;99.90;;;;;;4927035;29;21007;-58
2022/06/04 01:18:41;;;;;;;13.55;6.25;;;11.70;99.90;;;;;;4942185;28;20802;-62
2022/06/04 01:21:16;;;;;;;14.25;7.20;;;11.80;99.90;;;;;;4942901;28;20090;-59
2022/06/04 01:23:48;;;;;;;12.48;7.10;;;11.70;99.90;;;;;;4940215;28;20039;-61
2022/06/04 01:26:32;;;;;;;15.10;6.85;;;11.70;99.90;;;;;;4925262;29;20051;-56
2022/06/04 01:29:03;;;;;;;11.25;6.72;;;11.70;99.90;;;;;;4927943;29;20042;-58
2022/06/04 01:31:39;;;;;;;17.38;7.95;;;11.60;99.90;;;;;;4926087;29;20375;-58
2022/06/04 01:34:10;;;;;;;12.75;6.53;;;11.60;99.90;;;;;;4942577;28;22180;-64
2022/06/04 01:36:53;;;;;;;15.10;6.95;;;11.60;99.90;;;;;;4942204;28;20045;-59
2022/06/04 01:39:25;;;;;;;16.50;6.65;;;11.60;99.90;;;;;;4944132;28;20384;-58
2022/06/04 01:41:56;;;;;;;16.90;7.13;;;11.60;99.90;;;;;;4924714;29;20039;-60
2022/06/04 01:44:36;;;;;;;11.40;6.97;;;11.60;99.90;;;;;;4945993;28;20043;-56
2022/06/04 01:47:05;;;;;;;17.08;7.95;;;11.60;99.90;;;;;;4943588;29;20051;-61
2022/06/04 01:49:37;;;;;;;13.60;6.00;;;11.50;99.90;;;;;;4943252;28;20054;-60
2022/06/04 01:52:08;;;;;;;10.85;5.93;;;11.50;99.90;;;;;;4940936;29;20051;-64
2022/06/04 01:54:52;;;;;;;16.80;7.20;;;11.50;99.90;;;;;;4941909;28;20102;-60
2022/06/04 01:57:32;;;;;;;14.07;6.32;;;11.50;99.90;;;;;;4944387;28;20043;-57
2022/06/04 02:00:08;;;;;;;13.63;7.25;;;11.50;99.90;;;;;;4943413;29;20071;-61
2022/06/04 02:02:45;;;;;;;16.25;7.50;;;11.50;99.90;;;;;;4921503;28;20129;-61
2022/06/04 02:05:21;;;;;;;17.45;7.47;;;11.50;99.90;;;;;;4945544;29;20047;-60
2022/06/04 02:07:50;;;;;;;15.43;7.00;;;11.40;99.90;;;;;;4946166;28;20054;-60
2022/06/04 02:10:30;;;;;;;13.18;6.28;;;11.40;99.90;;;;;;4925615;29;20413;-63
2022/06/04 02:13:00;;;;;;;11.38;6.43;;;11.40;99.90;;;;;;4926373;28;20510;-59
2022/06/04 02:15:35;;;;;;;16.52;7.70;;;11.40;99.90;;;;;;4947840;28;20399;-57
2022/06/04 02:18:03;;;;;;;14.90;6.90;;;11.40;99.90;;;;;;4940855;28;20043;-59
2022/06/04 02:20:29;;;;;;;12.93;6.85;;;11.40;99.90;;;;;;4944113;29;20517;-62
2022/06/04 02:22:55;;;;;;;12.80;6.72;;;11.40;99.90;;;;;;4941715;28;20043;-59
2022/06/04 02:25:22;;;;;;;13.43;6.70;;;11.30;99.90;;;;;;4941759;29;20091;-61
2022/06/04 02:27:52;;;;;;;11.50;6.15;;;11.30;99.90;;;;;;4943394;28;20035;-59
2022/06/04 02:30:18;;;;;;;22.33;7.30;;;11.30;99.90;;;;;;4927001;29;20031;-62
2022/06/04 02:32:59;;;;;;;11.60;6.15;;;11.30;99.90;;;;;;4927187;29;20059;-62
2022/06/04 02:35:34;;;;;;;13.07;6.85;;;11.30;99.90;;;;;;4941771;29;20051;-60
2022/06/04 02:38:37;;;;;;;11.73;6.13;;;11.30;99.90;;;;;;4942073;28;20188;-61
2022/06/04 02:41:15;;;;;;;9.15;6.47;;;11.30;99.90;;;;;;4942855;29;20051;-56
2022/06/04 02:43:56;;;;;;;14.57;6.90;;;11.30;99.90;;;;;;4942398;28;20043;-61
2022/06/04 02:46:49;;;;;;;13.10;6.78;;;11.30;99.90;;;;;;4921829;28;20249;-63
2022/06/04 02:49:25;;;;;;;12.70;6.53;;;11.30;99.90;;;;;;4938149;28;20557;-62
2022/06/04 02:51:54;;;;;;;12.02;6.38;;;11.20;99.90;;;;;;4941694;28;20048;-61
2022/06/04 02:54:44;;;;;;;9.80;5.50;;;11.20;99.90;;;;;;4927888;29;20050;-63
2022/06/04 02:57:13;;;;;;;9.65;5.53;;;11.20;99.90;;;;;;4925432;29;20106;-60
2022/06/04 02:59:40;;;;;;;14.70;6.43;;;11.10;99.90;;;;;;4924545;29;20042;-60
2022/06/04 03:02:08;;;;;;;9.73;5.40;;;11.20;99.90;;;;;;4924572;29;20070;-60
2022/06/04 03:04:51;;;;;;;9.15;5.50;;;11.10;99.90;;;;;;4943660;28;20082;-58
2022/06/04 03:07:21;;;;;;;10.63;6.15;;;11.10;99.90;;;;;;4956595;28;20047;-63
2022/06/04 03:09:51;;;;;;;10.40;6.20;;;11.10;99.90;;;;;;4927379;29;20094;-59
2022/06/04 03:12:16;;;;;;;11.40;5.80;;;11.10;99.90;;;;;;4942682;28;20134;-64
2022/06/04 03:14:43;;;;;;;9.95;6.45;;;11.10;99.90;;;;;;4919373;28;20043;-59
2022/06/04 03:17:11;;;;;;;11.32;6.13;;;11.10;99.90;;;;;;4923989;29;20310;-58
2022/06/04 03:19:37;;;;;;;11.60;5.88;;;11.00;99.90;;;;;;4942649;28;20044;-61
2022/06/04 03:22:03;;;;;;;12.35;5.55;;;11.00;99.90;;;;;;4941453;28;20050;-58
2022/06/04 03:24:29;;;;;;;12.25;6.72;;;11.10;99.90;;;;;;4925871;29;20701;-62
2022/06/04 03:26:55;;;;;;;10.40;6.00;;;11.10;99.90;;;;;;4949276;28;20043;-60
2022/06/04 03:29:23;;;;;;;11.50;6.55;;;11.10;99.90;;;;;;4946231;28;20450;-61
2022/06/04 03:31:50;;;;;;;12.82;5.57;;;11.00;99.90;;;;;;4931231;29;20079;-59
2022/06/04 03:34:15;;;;;;;10.95;5.30;;;11.00;99.90;;;;;;4934047;28;20410;-58
2022/06/04 03:36:41;;;;;;;12.48;6.18;;;11.00;99.90;;;;;;4950791;28;20043;-58
2022/06/04 03:39:08;;;;;;;13.60;6.45;;;11.00;99.90;;;;;;4950313;28;20042;-61
2022/06/04 03:41:38;;;;;;;11.73;6.15;;;11.00;99.90;;;;;;4948536;28;20224;-62
2022/06/04 03:44:05;;;;;;;9.95;6.05;;;11.00;99.90;;;;;;4917663;28;20160;-58
2022/06/04 03:46:30;;;;;;;10.88;5.93;;;11.00;99.90;;;;;;4912976;29;20054;-59
2022/06/04 03:48:57;;;;;;;10.07;5.43;;;11.00;99.90;;;;;;4929111;29;20422;-59
2022/06/04 03:51:25;;;;;;;12.10;6.55;;;11.00;99.90;;;;;;4947481;28;20307;-59
2022/06/04 03:53:51;;;;;;;15.30;6.75;;;11.00;99.90;;;;;;4947096;28;20071;-59
2022/06/04 03:56:17;;;;;;;10.75;6.35;;;11.00;99.90;;;;;;4928571;29;20153;-60
2022/06/04 03:58:42;;;;;;;8.60;5.38;;;11.00;99.90;;;;;;4943432;29;20110;-60
2022/06/04 04:01:24;;;;;;;10.52;5.90;;;11.00;99.90;;;;;;4926768;29;20134;-54
2022/06/04 04:03:50;;;;;;;13.98;6.40;;;11.00;99.90;;;;;;4928294;29;20487;-60
2022/06/04 04:06:25;;;;;;;8.05;5.05;;;11.00;99.90;;;;;;4944041;28;20047;-55
2022/06/04 04:08:51;;;;;;;10.02;5.22;;;11.00;99.90;;;;;;4945948;28;20178;-58
2022/06/04 04:11:20;;;;;;;8.90;5.30;;;11.00;99.90;;;;;;4947223;29;20043;-60
2022/06/04 04:13:47;;;;;;;11.73;5.47;;;11.00;99.90;;;;;;4931967;29;20047;-62
2022/06/04 04:16:15;;;;;;;8.70;4.45;;;11.10;99.90;;;;;;4913550;29;20125;-55
2022/06/04 04:18:41;;;;;;;9.95;5.68;;;11.10;99.90;;;;;;4926029;29;20054;-58
2022/06/04 04:21:13;;;;;;;8.00;5.03;;;11.10;99.90;;;;;;4945990;28;20035;-60
2022/06/04 04:23:39;;;;;;;11.23;5.90;;;11.20;99.90;;;;;;4946154;28;20035;-59
2022/06/04 04:26:07;;;;;;;8.82;5.05;;;11.20;99.90;;;;;;4943838;29;20057;-61
2022/06/04 04:28:33;;;;;;;8.18;4.78;;;11.20;99.90;;;;;;4943982;28;20075;-60
2022/06/04 04:30:59;;;;;;;8.27;4.65;;;11.30;99.90;;;;;;4939989;28;20043;-60
2022/06/04 04:33:25;;;;;;;9.25;5.40;;;11.20;99.90;;;;;;4943047;29;20058;-58
2022/06/04 04:35:51;;;;;;;9.90;4.80;;;11.30;99.90;;;;;;4940418;28;20051;-57
2022/06/04 04:38:21;;;;;;;10.68;5.15;;;11.30;99.90;;;;;;4945936;28;20042;-60
2022/06/04 04:40:48;;;;;;;9.40;5.00;;;11.30;99.90;;;;;;4928870;29;20090;-58
2022/06/04 04:43:14;;;;;;;9.20;5.47;;;11.40;99.90;;;;;;4945413;28;22630;-55
2022/06/04 04:45:43;;;;;;;9.75;4.80;;;11.40;99.90;;;;;;4945268;28;20170;-60
2022/06/04 04:48:09;;;;;;;7.78;4.57;;;11.40;99.90;;;;;;4944044;29;20089;-61
2022/06/04 04:50:39;;;;;;;9.68;5.07;;;11.50;99.90;;;;;;4911540;29;20188;-63
2022/06/04 04:53:09;;;;;;;9.00;4.68;;;11.60;99.90;;;;;;4938572;28;20043;-61
2022/06/04 04:55:35;;;;;;;6.95;4.28;;;11.60;99.90;;;;;;4942318;29;20105;-62
2022/06/04 04:58:01;;;;;;;10.45;4.97;;;11.60;99.90;;;;;;4939705;28;20141;-55
2022/06/04 05:00:28;;;;;;;12.02;4.47;;;11.60;99.90;;;;;;4921263;29;20043;-60
2022/06/04 05:02:55;;;;;;;7.10;4.40;;;11.70;99.90;;;;;;4944845;28;20210;-60
2022/06/04 05:05:21;;;;;;;8.35;4.35;;;11.70;99.90;;;;;;4924096;29;20058;-58
2022/06/04 05:07:46;;;;;;;9.18;4.78;;;11.80;99.90;;;;;;4943274;28;20047;-60
2022/06/04 05:12:37;;;;;;;6.65;4.10;;;11.90;99.90;;;;;;4987594;23;20058;-53
2022/06/04 05:15:04;;;;;;;7.47;4.40;;;12.00;99.90;;;;;;4951312;28;20038;-56
2022/06/04 05:17:30;;;;;;;9.63;5.25;;;12.00;99.90;;;;;;4955585;28;20137;-57
2022/06/04 05:19:56;;;;;;;10.55;5.03;;;12.10;99.90;;;;;;4952972;28;20057;-55
2022/06/04 05:22:22;;;;;;;6.68;4.05;;;12.20;99.90;;;;;;4973849;28;20046;-55
2022/06/04 05:24:47;;;;;;;9.55;4.70;;;12.20;99.90;;;;;;4956224;28;20042;-55
2022/06/04 05:27:13;;;;;;;6.40;4.25;;;12.30;99.90;;;;;;4956115;28;20124;-56
2022/06/04 05:29:39;;;;;;;8.98;4.30;;;12.40;99.90;;;;;;4950411;28;20046;-57
2022/06/04 05:32:07;;;;;;;8.30;4.00;;;12.40;99.90;;;;;;4964461;28;20039;-55
2022/06/04 05:34:33;;;;;;;7.22;4.28;;;12.50;99.90;;;;;;4955828;28;20053;-55
2022/06/04 05:37:00;;;;;;;9.30;4.45;;;12.60;99.90;;;;;;4955178;28;20035;-56
2022/06/04 05:39:26;;;;;;;6.07;4.18;;;12.60;99.90;;;;;;4950650;28;20512;-55
2022/06/04 05:41:52;;;;;;;8.77;4.47;;;12.70;99.90;;;;;;4958214;28;20061;-55
2022/06/04 05:44:20;;;;;;;5.63;3.72;;;12.80;99.90;;;;;;4936984;28;20100;-56
2022/06/04 05:46:45;;;;;;;6.13;3.90;;;12.80;99.90;;;;;;4964595;28;20053;-56
2022/06/04 05:49:13;;;;;;;6.20;3.80;;;12.90;99.90;;;;;;4955691;28;20054;-56
2022/06/04 05:51:41;;;;;;;7.32;4.13;;;12.90;99.90;;;;;;4968963;28;20042;-56
2022/06/04 05:54:07;;;;;;;7.38;4.43;;;13.00;99.90;;;;;;4950687;28;20100;-55
2022/06/04 05:56:36;;;;;;;6.10;4.47;;;13.00;99.90;;;;;;4956632;28;20046;-56
2022/06/04 05:59:05;;;;;;;7.03;4.53;;;13.10;99.90;;;;;;4953004;28;20516;-57
2022/06/04 06:01:33;;;;;;;8.95;4.63;;;13.20;99.90;;;;;;4955096;28;20656;-59
2022/06/04 06:03:59;;;;;;;7.60;4.85;;;13.20;99.90;;;;;;4973585;28;20038;-57
2022/06/04 06:06:29;;;;;;;9.38;4.20;;;13.20;99.90;;;;;;4959294;28;20039;-57
2022/06/04 06:08:56;;;;;;;6.47;3.92;;;13.30;99.90;;;;;;4952251;28;20453;-58
2022/06/04 06:11:23;;;;;;;5.55;3.90;;;13.40;99.90;;;;;;4970576;28;20179;-58
2022/06/04 06:13:51;;;;;;;7.13;4.30;;;13.40;99.90;;;;;;4955286;28;20038;-59
2022/06/04 06:16:26;;;;;;;5.90;3.95;;;13.50;99.90;;;;;;4940182;28;20037;-56
2022/06/04 06:18:54;;;;;;;9.63;4.18;;;13.60;99.90;;;;;;4953895;28;20561;-56
2022/06/04 06:21:24;;;;;;;9.70;4.70;;;13.70;99.90;;;;;;4955365;28;20384;-56
2022/06/04 06:23:50;;;;;;;6.05;3.90;;;13.70;99.90;;;;;;4948908;28;20049;-56
2022/06/04 06:26:19;;;;;;;6.32;3.40;;;13.80;99.90;;;;;;4951320;28;20050;-58
2022/06/04 06:28:46;;;;;;;7.35;4.05;;;13.90;99.90;;;;;;4957378;28;20046;-56
2022/06/04 06:31:15;;;;;;;6.60;3.97;;;13.90;99.90;;;;;;4936911;28;20034;-58
2022/06/04 06:33:41;;;;;;;9.45;4.50;;;14.00;99.90;;;;;;4938333;28;20089;-57
2022/06/04 06:36:10;;;;;;;6.20;4.35;;;14.00;99.90;;;;;;4953163;28;20475;-58
2022/06/04 06:38:36;;;;;;;6.05;4.22;;;14.10;99.90;;;;;;4948498;28;20133;-61
2022/06/04 06:41:01;;;;;;;6.93;4.00;;;14.20;99.90;;;;;;4952396;28;20425;-56
2022/06/04 06:43:46;;;;;;;6.10;4.22;;;14.20;99.90;;;;;;4955314;28;20069;-58
2022/06/04 06:46:37;;;;;;;7.85;4.15;;;14.20;99.90;;;;;;4948843;28;20042;-55
2022/06/04 06:49:11;;;;;;;7.25;4.28;;;14.30;99.90;;;;;;4942550;28;20046;-59
2022/06/04 06:51:59;;;;;;;11.10;4.60;;;14.40;99.90;;;;;;4957345;28;20113;-56
2022/06/04 06:54:27;;;;;;;8.10;3.72;;;14.40;99.90;;;;;;4954177;28;20076;-62
2022/06/04 06:56:55;;;;;;;7.65;4.22;;;14.50;99.90;;;;;;4955542;28;20177;-57
2022/06/04 06:59:21;;;;;;;6.38;3.88;;;14.60;99.90;;;;;;4956159;28;20058;-57
2022/06/04 07:01:49;;;;;;;7.00;3.92;;;14.60;99.90;;;;;;4960828;28;20378;-56
2022/06/04 07:04:15;;;;;;;5.40;3.85;;;14.70;99.90;;;;;;4961849;28;20116;-58
2022/06/04 07:06:44;;;;;;;7.28;4.38;;;14.70;99.90;;;;;;4939741;28;20035;-58
2022/06/04 07:09:14;;;;;;;8.15;4.13;;;14.90;99.90;;;;;;4958519;28;20047;-60
2022/06/04 07:11:39;;;;;;;6.90;4.55;;;15.00;99.90;;;;;;4954789;28;20084;-59
2022/06/04 07:14:05;;;;;;;5.85;3.90;;;15.10;99.90;;;;;;4961438;28;20061;-58
2022/06/04 07:16:31;;;;;;;5.20;3.78;;;15.20;99.90;;;;;;4938343;28;20445;-57
2022/06/04 07:18:57;;;;;;;5.90;4.28;;;15.20;99.90;;;;;;4936260;28;20097;-57
2022/06/04 07:21:23;;;;;;;6.25;3.80;;;15.10;99.90;;;;;;4949075;28;20286;-61
2022/06/04 07:23:49;;;;;;;7.13;4.10;;;15.00;99.90;;;;;;4954385;28;20133;-61
2022/06/04 07:26:15;;;;;;;8.82;4.50;;;15.00;99.90;;;;;;4958498;28;20121;-58
2022/06/04 07:28:41;;;;;;;8.18;4.28;;;15.10;99.90;;;;;;4949536;28;20054;-56
2022/06/04 07:31:09;;;;;;;7.70;4.70;;;15.20;99.90;;;;;;4961668;28;20034;-57
2022/06/04 07:33:35;;;;;;;7.40;4.43;;;15.20;99.90;;;;;;4972149;28;20392;-57
2022/06/04 07:36:01;;;;;;;6.78;4.43;;;15.40;99.90;;;;;;4952830;28;20097;-60
2022/06/04 07:38:27;;;;;;;5.43;4.25;;;15.60;99.90;;;;;;4957473;28;20429;-62
2022/06/04 07:40:53;;;;;;;8.25;4.47;;;15.80;99.90;;;;;;4955810;28;20371;-57
2022/06/04 07:43:19;;;;;;;9.60;4.28;;;15.90;99.90;;;;;;4960864;28;20065;-57
2022/06/04 07:45:45;;;;;;;6.03;4.32;;;15.90;99.90;;;;;;4957197;28;20086;-58
2022/06/04 07:48:12;;;;;;;9.43;4.28;;;16.00;99.90;;;;;;4960002;28;20035;-57
2022/06/04 07:50:39;;;;;;;5.30;3.85;;;16.10;99.90;;;;;;4961486;28;20050;-63
2022/06/04 07:53:05;;;;;;;6.20;3.53;;;16.00;99.90;;;;;;4960036;28;20062;-61
2022/06/04 07:55:31;;;;;;;4.95;3.20;;;16.10;99.90;;;;;;4960772;28;20054;-60
2022/06/04 07:57:57;;;;;;;5.78;3.78;;;16.20;99.90;;;;;;4955756;28;20397;-57
2022/06/04 08:00:24;;;;;;;5.80;3.90;;;16.30;99.90;;;;;;4961185;28;20034;-57
2022/06/04 08:02:52;;;;;;;7.45;4.15;;;16.40;99.90;;;;;;4959898;28;20077;-60
2022/06/04 08:05:19;;;;;;;4.93;3.80;;;16.50;99.90;;;;;;4945646;28;20133;-61
2022/06/04 08:07:45;;;;;;;5.57;3.70;;;16.50;99.90;;;;;;4947551;28;20074;-58
2022/06/04 08:10:12;;;;;;;7.75;4.28;;;16.50;99.90;;;;;;4960160;28;20038;-59
2022/06/04 08:12:48;;;;;;;8.00;3.88;;;16.50;99.90;;;;;;4955603;28;20038;-59
2022/06/04 08:15:14;;;;;;;7.22;3.60;;;16.40;99.90;;;;;;4988584;28;20056;-57
2022/06/04 08:17:40;;;;;;;7.65;3.78;;;16.60;99.90;;;;;;4933355;28;20050;-60
2022/06/04 08:20:07;;;;;;;7.13;3.70;;;16.60;99.90;;;;;;4967694;28;20046;-61
2022/06/04 08:22:33;;;;;;;6.68;3.95;;;16.80;99.90;;;;;;4969393;28;20042;-59
2022/06/04 08:24:59;;;;;;;6.85;3.70;;;16.90;99.90;;;;;;4950545;28;20160;-58
2022/06/04 08:27:24;;;;;;;8.32;4.03;;;17.10;99.90;;;;;;4949059;28;20047;-59
2022/06/04 08:29:53;;;;;;;8.25;3.97;;;17.20;99.90;;;;;;4927378;28;20034;-60
2022/06/04 08:32:18;;;;;;;6.72;3.42;;;17.00;99.90;;;;;;4960647;28;20053;-61
2022/06/04 08:34:44;;;;;;;6.32;3.67;;;17.00;99.90;;;;;;4940676;28;20050;-62
2022/06/04 08:37:10;;;;;;;7.07;4.25;;;16.80;99.90;;;;;;4956781;28;20031;-59
2022/06/04 08:39:36;;;;;;;9.05;4.63;;;16.70;99.90;;;;;;4972731;28;20378;-60
2022/06/04 08:42:05;;;;;;;7.53;4.13;;;16.70;99.90;;;;;;4978660;28;22354;-59
2022/06/04 08:44:39;;;;;;;5.28;3.47;;;16.50;99.90;;;;;;4952474;28;20482;-58
2022/06/04 08:47:11;;;;;;;6.07;3.80;;;16.50;99.90;;;;;;4956649;28;20132;-61
2022/06/04 08:49:42;;;;;;;6.97;3.72;;;16.50;99.90;;;;;;4972913;28;20076;-59
2022/06/04 08:52:22;;;;;;;5.60;3.35;;;16.60;99.90;;;;;;4959784;28;20064;-58
2022/06/04 08:58:00;;;;;;;7.07;3.20;;;16.50;99.90;;;;;;4968745;28;20042;-57
2022/06/04 09:00:54;;;;;;;5.10;2.97;;;16.50;99.90;;;;;;4961630;28;20050;-58
2022/06/04 09:03:26;;;;;;;5.70;3.10;;;16.50;99.90;;;;;;4935912;28;20034;-57
2022/06/04 09:06:01;;;;;;;5.63;3.45;;;16.60;99.90;;;;;;4957997;28;20046;-56
2022/06/04 09:08:57;;;;;;;5.93;3.10;;;16.80;99.90;;;;;;4958304;28;20069;-62
2022/06/04 09:11:46;;;;;;;6.72;3.90;;;16.90;99.90;;;;;;4952650;28;20501;-58
2022/06/04 09:14:14;;;;;;;5.65;3.20;;;17.20;99.90;;;;;;4956320;28;20045;-61
2022/06/04 09:16:58;;;;;;;4.82;3.00;;;17.40;99.90;;;;;;4944619;28;20156;-58
2022/06/04 09:19:26;;;;;;;;;;;17.50;99.90;;;;;;4961729;28;20406;-59
2022/06/04 09:21:53;;;;;;;7.95;3.67;;;17.50;99.90;;;;;;4974506;28;19917;-58
2022/06/04 09:24:18;;;;;;;8.93;3.90;;;17.40;99.90;;;;;;4972114;28;20078;-60
2022/06/04 09:27:04;;;;;;;5.65;3.70;;;17.20;99.90;;;;;;4948879;28;20106;-56
2022/06/04 09:29:40;;;;;;;6.70;3.60;;;17.20;99.90;;;;;;4952932;28;20347;-58
2022/06/04 09:32:21;;;;;;;9.15;4.10;;;17.20;99.90;;;;;;4961558;28;20088;-60
2022/06/04 09:34:50;;;;;;;7.05;3.35;;;17.20;99.90;;;;;;4956340;28;20046;-60
2022/06/04 09:37:16;;;;;;;5.97;3.53;;;17.20;99.90;;;;;;4960169;28;21070;-58
2022/06/04 09:39:47;;;;;;;8.80;4.55;;;17.20;99.90;;;;;;4950527;28;20053;-57
2022/06/04 09:42:13;;;;;;;5.90;3.35;;;17.50;99.90;;;;;;4967275;28;20054;-60
2022/06/04 09:45:17;;;;;;;6.55;3.45;;;17.60;99.90;;;;;;4949361;28;20488;-56
2022/06/04 09:47:44;;;;;;;;;;;17.70;99.90;;;;;;4964002;28;20047;-55
2022/06/04 09:50:29;;;;;;;7.55;3.10;;;17.90;99.80;;;;;;4954481;28;19926;-61
2022/06/04 09:53:03;;;;;;;6.18;3.38;;;17.80;99.90;;;;;;4949770;28;20052;-57
2022/06/04 09:55:31;;;;;;;6.07;3.03;;;18.00;99.90;;;;;;4977681;28;20100;-53
2022/06/04 09:58:02;;;;;;;7.45;3.22;;;18.20;99.90;;;;;;4950244;28;20141;-60
2022/06/04 10:00:35;;;;;;;5.35;3.50;;;18.30;99.80;;;;;;4950713;28;20276;-57
2022/06/04 10:03:16;;;;;;;5.28;2.80;;;18.40;99.90;;;;;;4948903;28;20125;-56
2022/06/04 10:05:52;;;;;;;4.95;3.17;;;18.60;99.70;;;;;;4946658;28;20042;-57
2022/06/04 10:08:22;;;;;;;5.15;3.13;;;18.70;99.30;;;;;;4952608;28;20038;-57
2022/06/04 10:10:49;;;;;;;5.90;3.50;;;18.60;99.20;;;;;;4938066;28;20050;-58
2022/06/04 10:13:46;;;;;;;6.78;3.65;;;18.70;98.80;;;;;;4944217;28;20581;-57
2022/06/04 10:16:36;;;;;;;5.65;3.38;;;18.70;99.80;;;;;;4939290;28;20037;-61
2022/06/04 10:19:14;;;;;;;6.68;3.70;;;18.80;99.50;;;;;;4945196;28;20441;-60
2022/06/04 10:21:42;;;;;;;8.93;3.95;;;19.00;99.40;;;;;;4941523;28;20050;-62
2022/06/04 10:24:26;;;;;;;6.80;3.67;;;19.20;99.50;;;;;;4968415;28;20049;-59
2022/06/04 10:27:03;;;;;;;5.93;3.20;;;19.20;99.00;;;;;;4954054;28;20085;-58
2022/06/04 10:29:35;;;;;;;6.63;3.25;;;19.40;99.60;;;;;;4941766;28;20149;-61
2022/06/04 10:32:31;;;;;;;6.30;3.40;;;19.60;99.30;;;;;;4944979;28;20039;-56
2022/06/04 10:35:16;;;;;;;7.68;4.05;;;19.40;97.20;;;;;;4959101;28;20077;-58
2022/06/04 10:38:01;;;;;;;6.50;3.40;;;19.20;98.30;;;;;;4930740;28;20050;-57
2022/06/04 10:40:36;;;;;;;6.30;3.45;;;19.20;99.00;;;;;;4977210;28;20051;-56
2022/06/04 10:43:47;;;;;;;6.22;3.13;;;19.30;98.00;;;;;;4969512;28;20500;-63
2022/06/04 10:46:44;;;;;;;6.88;3.15;;;19.30;98.40;;;;;;4965270;28;20042;-57
2022/06/04 10:49:40;;;;;;;6.20;3.30;;;19.40;98.80;;;;;;4962400;28;20043;-58
2022/06/04 10:52:32;;;;;;;7.57;3.70;;;19.50;99.10;;;;;;4964175;28;20045;-58
2022/06/04 10:55:27;;;;;;;7.28;3.17;;;19.70;98.30;;;;;;4941801;28;20547;-57
2022/06/04 10:57:53;;;;;;;5.65;3.60;;;19.90;97.90;;;;;;4964431;28;20715;-58
2022/06/04 11:00:31;;;;;;;6.05;3.40;;;19.90;98.20;;;;;;4970395;28;20600;-56
2022/06/04 11:03:11;;;;;;;7.60;3.75;;;19.90;97.30;;;;;;4960692;28;20071;-54
2022/06/04 11:05:43;;;;;;;4.50;3.05;;;19.80;96.80;;;;;;4958789;28;20050;-60
2022/06/04 11:08:29;;;;;;;6.45;3.70;;;19.60;98.10;;;;;;4956969;28;20137;-56
2022/06/04 11:11:03;;;;;;;7.47;3.20;;;19.70;97.60;;;;;;4982130;23;20546;-61
2022/06/04 11:13:45;;;;;;;6.03;3.55;;;19.70;97.90;;;;;;4978611;28;20053;-58
2022/06/04 11:16:17;;;;;;;7.28;4.03;;;19.70;97.80;;;;;;4982642;28;20034;-59
2022/06/04 11:18:58;;;;;;;6.07;3.50;;;19.70;96.90;;;;;;4978752;28;20038;-58
2022/06/04 11:21:33;;;;;;;8.32;3.95;;;19.60;96.20;;;;;;4961873;28;20481;-61
2022/06/04 11:24:26;;;;;;;7.60;3.55;;;19.50;96.90;;;;;;4964010;28;20379;-56
2022/06/04 11:27:17;;;;;;;9.45;3.83;;;19.50;97.50;;;;;;4959121;28;20047;-56
2022/06/04 11:29:43;;;;;;;6.85;3.92;;;19.70;97.40;;;;;;4944308;28;21326;-59
2022/06/04 11:32:21;;;;;;;6.53;4.15;;;19.90;97.50;;;;;;4949048;28;20130;-58
2022/06/04 11:35:04;;;;;;;5.43;3.25;;;20.00;96.80;;;;;;4949022;28;20045;-60
2022/06/04 11:37:40;;;;;;;5.95;3.72;;;19.80;96.40;;;;;;4950634;28;20050;-59
2022/06/04 11:40:27;;;;;;;8.80;3.80;;;19.80;97.10;;;;;;4986691;28;20043;-58
2022/06/04 11:43:44;;;;;;;7.93;3.83;;;19.90;97.00;;;;;;4955342;28;20062;-61
2022/06/04 11:46:48;;;;;;;9.77;4.53;;;19.80;97.20;;;;;;4951985;28;20478;-60
2022/06/04 11:49:19;;;;;;;6.20;3.72;;;19.90;96.40;;;;;;4959260;28;20047;-62
2022/06/04 11:52:05;;;;;;;7.50;4.15;;;19.90;97.30;;;;;;4965194;28;20348;-59
2022/06/04 11:54:30;;;;;;;7.10;3.90;;;19.80;96.60;;;;;;4958478;28;20609;-54
2022/06/04 11:57:21;;;;;;;8.55;3.97;;;19.90;97.30;;;;;;4961063;28;20129;-61
2022/06/04 12:00:03;;;;;;;8.98;4.07;;;20.10;97.20;;;;;;4959334;28;20532;-60
2022/06/04 12:02:50;;;;;;;9.32;3.95;;;20.30;96.50;;;;;;4956076;28;20306;-60
2022/06/04 12:05:16;;;;;;;9.50;4.00;;;20.30;95.60;;;;;;4953216;28;20050;-63
2022/06/04 12:07:48;;;;;;;8.18;3.72;;;20.20;96.50;;;;;;4953739;28;21755;-60
2022/06/04 12:10:52;;;;;;;7.68;4.32;;;20.30;96.30;;;;;;4938198;28;20055;-62
2022/06/04 12:13:38;;;;;;;7.65;3.92;;;20.40;95.00;;;;;;4965343;28;20039;-61
2022/06/04 12:16:15;;;;;;;12.10;4.03;;;20.30;95.60;;;;;;4950089;28;20050;-60
2022/06/04 12:18:50;;;;;;;6.95;4.50;;;20.40;95.60;;;;;;4957780;28;20039;-59
2022/06/04 12:24:18;;;;;;;7.05;3.42;;;20.10;95.80;;;;;;4960805;28;20414;-63
2022/06/04 12:26:49;;;;;;;9.05;4.75;;;20.30;95.60;;;;;;4945843;28;20283;-62
2022/06/04 12:29:31;;;;;;;9.00;3.83;;;20.30;95.20;;;;;;4948700;28;20134;-60
2022/06/04 12:32:00;;;;;;;9.15;4.10;;;20.30;95.20;;;;;;4951126;28;20039;-60
2022/06/04 12:34:34;;;;;;;9.07;4.60;;;20.30;95.40;;;;;;4953467;28;20062;-59
2022/06/04 12:37:01;;;;;;;9.38;4.72;;;20.50;95.50;;;;;;4948350;28;20083;-59
2022/06/04 12:39:34;;;;;;;10.65;4.93;;;20.30;94.50;;;;;;4953402;28;20046;-58
2022/06/04 12:42:09;;;;;;;11.23;5.88;;;19.90;94.90;;;;;;4953795;28;20126;-62
2022/06/04 12:44:36;;;;;;;9.43;5.57;;;20.00;95.80;;;;;;4972308;28;20047;-61
2022/06/04 12:47:19;;;;;;;9.57;5.07;;;20.00;96.10;;;;;;4956034;28;20039;-59
2022/06/04 12:49:55;;;;;;;9.53;5.20;;;20.40;97.00;;;;;;4958009;28;20035;-60
2022/06/04 12:52:36;;;;;;;7.78;4.32;;;20.60;95.60;;;;;;4955849;28;20313;-61
2022/06/04 12:55:21;;;;;;;7.53;4.03;;;20.50;94.60;;;;;;4952734;28;20038;-62
2022/06/04 12:57:57;;;;;;;8.60;4.40;;;20.50;94.70;;;;;;4948122;28;20485;-62
2022/06/04 13:00:30;;;;;;;7.97;4.60;;;20.50;95.30;;;;;;4948407;28;20046;-57
2022/06/04 13:03:08;;;;;;;9.65;5.10;;;20.60;95.30;;;;;;4952502;28;20074;-59
2022/06/04 13:05:57;;;;;;;11.07;4.97;;;20.60;95.10;;;;;;4953559;28;20047;-57
2022/06/04 13:08:37;;;;;;;8.18;4.95;;;20.80;94.80;;;;;;4973597;28;20046;-58
2022/06/04 13:11:45;;;;;;;9.45;5.00;;;21.10;96.60;;;;;;4954408;28;20993;-60
2022/06/04 13:14:34;;;;;;;7.30;4.50;;;21.30;95.10;;;;;;4950187;28;20405;-58
2022/06/04 13:17:28;;;;;;;10.70;5.45;;;21.30;94.50;;;;;;4947188;28;20456;-60
2022/06/04 13:20:16;;;;;;;7.75;4.07;;;21.40;94.60;;;;;;4950447;28;20043;-57
2022/06/04 13:22:51;;;;;;;7.82;4.43;;;21.70;94.30;;;;;;4957651;28;20155;-60
2022/06/04 13:25:31;;;;;;;8.55;4.85;;;21.80;93.50;;;;;;4964452;28;21653;-61
2022/06/04 13:27:57;;;;;;;9.18;4.43;;;21.90;93.10;;;;;;4959413;28;20041;-61
2022/06/04 13:30:35;;;;;;;11.32;4.45;;;21.60;92.80;;;;;;4967632;28;20042;-58